sensor_id;sensor_type;location;lat;lon;timestamp;temperature;humidity
32612;DHT22;19030;49.478;8.986;2023-02-28T00:00:17;-0.30;99.90
32612;DHT22;19030;49.478;8.986;2023-02-28T00:02:18;-0.30;99.90
32612;DHT22;19030;49.478;8.986;2023-02-28T00:04:19;-0.30;99.90
32612;DHT22;19030;49.478;8.986;2023-02-28T00:06:19;-0.40;99.90
32612;DHT22;19030;49.478;8.986;2023-02-28T00:08:21;-0.40;99.90
32612;DHT22;19030;49.478;8.986;2023-02-28T00:10:25;-0.40;99.90
32612;DHT22;19030;49.478;8.986;2023-02-28T00:12:26;-0.40;99.90
32612;DHT22;19030;49.478;8.986;2023-02-28T00:14:26;-0.40;99.90
32612;DHT22;19030;49.478;8.986;2023-02-28T00:16:27;-0.40;99.90
32612;DHT22;19030;49.478;8.986;2023-02-28T00:18:27;-0.40;99.90
32612;DHT22;19030;49.478;8.986;2023-02-28T00:20:28;-0.40;99.90
32612;DHT22;19030;49.478;8.986;2023-02-28T00:22:30;-0.50;99.90
32612;DHT22;19030;49.478;8.986;2023-02-28T00:24:31;-0.50;99.90
32612;DHT22;19030;49.478;8.986;2023-02-28T00:26:31;-0.50;99.90
32612;DHT22;19030;49.478;8.986;2023-02-28T00:28:32;-0.60;99.90
32612;DHT22;19030;49.478;8.986;2023-02-28T00:30:33;-0.60;99.90
32612;DHT22;19030;49.478;8.986;2023-02-28T00:32:34;-0.60;99.90
32612;DHT22;19030;49.478;8.986;2023-02-28T00:34:35;-0.60;99.90
32612;DHT22;19030;49.478;8.986;2023-02-28T00:36:37;-0.60;99.90
32612;DHT22;19030;49.478;8.986;2023-02-28T00:38:39;-0.70;99.90
32612;DHT22;19030;49.478;8.986;2023-02-28T00:40:40;-0.60;99.90
32612;DHT22;19030;49.478;8.986;2023-02-28T00:42:41;-0.60;99.90
32612;DHT22;19030;49.478;8.986;2023-02-28T00:44:41;-0.60;99.90
32612;DHT22;19030;49.478;8.986;2023-02-28T00:46:42;-0.60;99.90
32612;DHT22;19030;49.478;8.986;2023-02-28T00:48:42;-0.60;99.90
32612;DHT22;19030;49.478;8.986;2023-02-28T00:50:43;-0.70;99.90
32612;DHT22;19030;49.478;8.986;2023-02-28T00:52:44;-0.70;99.90
32612;DHT22;19030;49.478;8.986;2023-02-28T00:54:44;-0.70;99.90
32612;DHT22;19030;49.478;8.986;2023-02-28T00:56:45;-0.70;99.90
32612;DHT22;19030;49.478;8.986;2023-02-28T00:58:46;-0.70;99.90
32612;DHT22;19030;49.478;8.986;2023-02-28T01:00:47;-0.70;99.90
32612;DHT22;19030;49.478;8.986;2023-02-28T01:02:50;-0.70;99.90
32612;DHT22;19030;49.478;8.986;2023-02-28T01:04:50;-0.70;99.90
32612;DHT22;19030;49.478;8.986;2023-02-28T01:06:51;-0.70;99.90
32612;DHT22;19030;49.478;8.986;2023-02-28T01:08:52;-0.80;99.90
32612;DHT22;19030;49.478;8.986;2023-02-28T01:10:53;-0.80;99.90
32612;DHT22;19030;49.478;8.986;2023-02-28T01:12:53;-0.80;99.90
32612;DHT22;19030;49.478;8.986;2023-02-28T01:14:54;-0.80;99.90
32612;DHT22;19030;49.478;8.986;2023-02-28T01:16:55;-0.90;99.90
32612;DHT22;19030;49.478;8.986;2023-02-28T01:18:56;-0.90;99.90
32612;DHT22;19030;49.478;8.986;2023-02-28T01:20:57;-0.90;99.90
32612;DHT22;19030;49.478;8.986;2023-02-28T01:22:58;-0.90;99.90
32612;DHT22;19030;49.478;8.986;2023-02-28T01:24:58;-1.00;99.90
32612;DHT22;19030;49.478;8.986;2023-02-28T01:26:59;-1.00;99.90
32612;DHT22;19030;49.478;8.986;2023-02-28T01:28:59;-1.10;99.90
32612;DHT22;19030;49.478;8.986;2023-02-28T01:31:00;-1.10;99.90
32612;DHT22;19030;49.478;8.986;2023-02-28T01:33:01;-1.00;99.90
32612;DHT22;19030;49.478;8.986;2023-02-28T01:35:02;-1.00;99.90
32612;DHT22;19030;49.478;8.986;2023-02-28T01:37:03;-1.00;99.90
32612;DHT22;19030;49.478;8.986;2023-02-28T01:39:04;-1.00;99.90
32612;DHT22;19030;49.478;8.986;2023-02-28T01:41:05;-1.00;99.90
32612;DHT22;19030;49.478;8.986;2023-02-28T01:44:05;-1.00;99.90
32612;DHT22;19030;49.478;8.986;2023-02-28T01:45:41;-1.10;99.90
32612;DHT22;19030;49.478;8.986;2023-02-28T01:47:43;-1.10;99.90
32612;DHT22;19030;49.478;8.986;2023-02-28T01:49:44;-1.10;99.90
32612;DHT22;19030;49.478;8.986;2023-02-28T01:51:50;-1.10;99.90
32612;DHT22;19030;49.478;8.986;2023-02-28T01:53:58;-1.10;99.90
32612;DHT22;19030;49.478;8.986;2023-02-28T01:56:00;-1.10;99.90
32612;DHT22;19030;49.478;8.986;2023-02-28T01:58:04;-1.20;99.90
32612;DHT22;19030;49.478;8.986;2023-02-28T02:00:12;-1.20;99.90
32612;DHT22;19030;49.478;8.986;2023-02-28T02:02:17;-1.20;99.90
32612;DHT22;19030;49.478;8.986;2023-02-28T02:04:17;-1.20;99.90
32612;DHT22;19030;49.478;8.986;2023-02-28T02:06:19;-1.20;99.90
32612;DHT22;19030;49.478;8.986;2023-02-28T02:08:23;-1.20;99.90
32612;DHT22;19030;49.478;8.986;2023-02-28T02:15:13;-1.40;99.90
32612;DHT22;19030;49.478;8.986;2023-02-28T02:17:36;-1.50;99.90
32612;DHT22;19030;49.478;8.986;2023-02-28T02:22:49;-1.30;99.90
32612;DHT22;19030;49.478;8.986;2023-02-28T02:29:21;-1.40;99.90
32612;DHT22;19030;49.478;8.986;2023-02-28T02:38:12;-1.30;99.90
32612;DHT22;19030;49.478;8.986;2023-02-28T02:40:25;-1.40;99.90
32612;DHT22;19030;49.478;8.986;2023-02-28T02:47:39;-1.40;99.90
32612;DHT22;19030;49.478;8.986;2023-02-28T02:49:51;-1.40;99.90
32612;DHT22;19030;49.478;8.986;2023-02-28T02:51:53;-1.50;99.90
32612;DHT22;19030;49.478;8.986;2023-02-28T02:54:04;-1.50;99.90
32612;DHT22;19030;49.478;8.986;2023-02-28T02:56:07;-1.50;99.90
32612;DHT22;19030;49.478;8.986;2023-02-28T02:58:13;-1.60;99.90
32612;DHT22;19030;49.478;8.986;2023-02-28T03:00:17;-1.60;99.90
32612;DHT22;19030;49.478;8.986;2023-02-28T03:02:21;-1.60;99.90
32612;DHT22;19030;49.478;8.986;2023-02-28T03:04:24;-1.60;99.90
32612;DHT22;19030;49.478;8.986;2023-02-28T03:06:27;-1.60;99.90
32612;DHT22;19030;49.478;8.986;2023-02-28T03:08:29;-1.60;99.90
32612;DHT22;19030;49.478;8.986;2023-02-28T03:10:37;-1.60;99.90
32612;DHT22;19030;49.478;8.986;2023-02-28T03:12:41;-1.50;99.90
32612;DHT22;19030;49.478;8.986;2023-02-28T03:15:29;-1.60;99.90
32612;DHT22;19030;49.478;8.986;2023-02-28T03:17:40;-1.50;99.90
32612;DHT22;19030;49.478;8.986;2023-02-28T03:20:17;-1.60;99.90
32612;DHT22;19030;49.478;8.986;2023-02-28T03:22:39;-1.60;99.90
32612;DHT22;19030;49.478;8.986;2023-02-28T03:27:09;-1.60;99.90
32612;DHT22;19030;49.478;8.986;2023-02-28T03:29:21;-1.60;99.90
32612;DHT22;19030;49.478;8.986;2023-02-28T03:31:30;-1.60;99.90
32612;DHT22;19030;49.478;8.986;2023-02-28T03:33:36;-1.60;99.90
32612;DHT22;19030;49.478;8.986;2023-02-28T03:35:39;-1.70;99.90
32612;DHT22;19030;49.478;8.986;2023-02-28T03:37:43;-1.70;99.90
32612;DHT22;19030;49.478;8.986;2023-02-28T03:39:49;-1.60;99.90
32612;DHT22;19030;49.478;8.986;2023-02-28T03:42:07;-1.60;99.90
32612;DHT22;19030;49.478;8.986;2023-02-28T03:44:29;-1.70;99.90
32612;DHT22;19030;49.478;8.986;2023-02-28T03:46:34;-1.70;99.90
32612;DHT22;19030;49.478;8.986;2023-02-28T03:48:47;-1.70;99.90
32612;DHT22;19030;49.478;8.986;2023-02-28T03:50:54;-1.70;99.90
32612;DHT22;19030;49.478;8.986;2023-02-28T03:53:02;-1.70;99.90
32612;DHT22;19030;49.478;8.986;2023-02-28T03:55:09;-1.60;99.90
32612;DHT22;19030;49.478;8.986;2023-02-28T03:57:18;-1.70;99.90
32612;DHT22;19030;49.478;8.986;2023-02-28T03:59:27;-1.60;99.90
32612;DHT22;19030;49.478;8.986;2023-02-28T04:01:39;-1.60;99.90
32612;DHT22;19030;49.478;8.986;2023-02-28T04:03:41;-1.60;99.90
32612;DHT22;19030;49.478;8.986;2023-02-28T04:05:53;-1.60;99.90
32612;DHT22;19030;49.478;8.986;2023-02-28T04:07:54;-1.70;99.90
32612;DHT22;19030;49.478;8.986;2023-02-28T04:09:54;-1.70;99.90
32612;DHT22;19030;49.478;8.986;2023-02-28T04:11:55;-1.70;99.90
32612;DHT22;19030;49.478;8.986;2023-02-28T04:13:58;-1.70;99.90
32612;DHT22;19030;49.478;8.986;2023-02-28T04:15:59;-1.80;99.90
32612;DHT22;19030;49.478;8.986;2023-02-28T04:18:00;-1.70;99.90
32612;DHT22;19030;49.478;8.986;2023-02-28T04:20:00;-1.80;99.90
32612;DHT22;19030;49.478;8.986;2023-02-28T04:22:01;-1.80;99.90
32612;DHT22;19030;49.478;8.986;2023-02-28T04:24:02;-1.70;99.90
32612;DHT22;19030;49.478;8.986;2023-02-28T04:26:03;-1.70;99.90
32612;DHT22;19030;49.478;8.986;2023-02-28T04:28:04;-1.70;99.90
32612;DHT22;19030;49.478;8.986;2023-02-28T04:30:05;-1.70;99.90
32612;DHT22;19030;49.478;8.986;2023-02-28T04:32:06;-1.70;99.90
32612;DHT22;19030;49.478;8.986;2023-02-28T04:34:07;-1.70;99.90
32612;DHT22;19030;49.478;8.986;2023-02-28T04:36:08;-1.60;99.90
32612;DHT22;19030;49.478;8.986;2023-02-28T04:38:09;-1.50;99.90
32612;DHT22;19030;49.478;8.986;2023-02-28T04:40:10;-1.50;99.90
32612;DHT22;19030;49.478;8.986;2023-02-28T04:42:12;-1.50;99.90
32612;DHT22;19030;49.478;8.986;2023-02-28T04:44:13;-1.50;99.90
32612;DHT22;19030;49.478;8.986;2023-02-28T04:46:13;-1.50;99.90
32612;DHT22;19030;49.478;8.986;2023-02-28T04:48:14;-1.60;99.90
32612;DHT22;19030;49.478;8.986;2023-02-28T04:50:15;-1.50;99.90
32612;DHT22;19030;49.478;8.986;2023-02-28T04:52:15;-1.50;99.90
32612;DHT22;19030;49.478;8.986;2023-02-28T04:54:16;-1.50;99.90
32612;DHT22;19030;49.478;8.986;2023-02-28T04:56:18;-1.50;99.90
32612;DHT22;19030;49.478;8.986;2023-02-28T04:58:19;-1.60;99.90
32612;DHT22;19030;49.478;8.986;2023-02-28T05:00:20;-1.60;99.90
32612;DHT22;19030;49.478;8.986;2023-02-28T05:02:20;-1.60;99.90
32612;DHT22;19030;49.478;8.986;2023-02-28T05:04:21;-1.60;99.90
32612;DHT22;19030;49.478;8.986;2023-02-28T05:06:24;-1.60;99.90
32612;DHT22;19030;49.478;8.986;2023-02-28T05:08:25;-1.60;99.90
32612;DHT22;19030;49.478;8.986;2023-02-28T05:10:26;-1.60;99.90
32612;DHT22;19030;49.478;8.986;2023-02-28T05:12:27;-1.60;99.90
32612;DHT22;19030;49.478;8.986;2023-02-28T05:14:28;-1.70;99.90
32612;DHT22;19030;49.478;8.986;2023-02-28T05:16:28;-1.60;99.90
32612;DHT22;19030;49.478;8.986;2023-02-28T05:18:29;-1.60;99.90
32612;DHT22;19030;49.478;8.986;2023-02-28T05:20:29;-1.60;99.90
32612;DHT22;19030;49.478;8.986;2023-02-28T05:22:30;-1.70;99.90
32612;DHT22;19030;49.478;8.986;2023-02-28T05:24:30;-1.70;99.90
32612;DHT22;19030;49.478;8.986;2023-02-28T05:26:35;-1.70;99.90
32612;DHT22;19030;49.478;8.986;2023-02-28T05:28:36;-1.70;99.90
32612;DHT22;19030;49.478;8.986;2023-02-28T05:30:36;-1.80;99.90
32612;DHT22;19030;49.478;8.986;2023-02-28T05:32:38;-1.80;99.90
32612;DHT22;19030;49.478;8.986;2023-02-28T05:34:39;-1.70;99.90
32612;DHT22;19030;49.478;8.986;2023-02-28T05:36:40;-1.80;99.90
32612;DHT22;19030;49.478;8.986;2023-02-28T05:38:40;-1.90;99.90
32612;DHT22;19030;49.478;8.986;2023-02-28T05:40:41;-1.90;99.90
32612;DHT22;19030;49.478;8.986;2023-02-28T05:42:41;-1.90;99.90
32612;DHT22;19030;49.478;8.986;2023-02-28T05:44:42;-1.90;99.90
32612;DHT22;19030;49.478;8.986;2023-02-28T05:46:43;-1.90;99.90
32612;DHT22;19030;49.478;8.986;2023-02-28T05:48:46;-1.90;99.90
32612;DHT22;19030;49.478;8.986;2023-02-28T05:50:47;-1.90;99.90
32612;DHT22;19030;49.478;8.986;2023-02-28T05:52:52;-1.90;99.90
32612;DHT22;19030;49.478;8.986;2023-02-28T05:54:52;-2.00;99.90
32612;DHT22;19030;49.478;8.986;2023-02-28T05:56:53;-1.90;99.90
32612;DHT22;19030;49.478;8.986;2023-02-28T05:58:53;-1.90;99.90
32612;DHT22;19030;49.478;8.986;2023-02-28T06:00:54;-2.00;99.90
32612;DHT22;19030;49.478;8.986;2023-02-28T06:02:55;-2.00;99.90
32612;DHT22;19030;49.478;8.986;2023-02-28T06:04:58;-2.00;99.90
32612;DHT22;19030;49.478;8.986;2023-02-28T06:06:58;-1.90;99.90
32612;DHT22;19030;49.478;8.986;2023-02-28T06:08:59;-1.90;99.90
32612;DHT22;19030;49.478;8.986;2023-02-28T06:11:03;-1.90;99.90
32612;DHT22;19030;49.478;8.986;2023-02-28T06:13:04;-1.90;99.90
32612;DHT22;19030;49.478;8.986;2023-02-28T06:15:05;-1.80;99.90
32612;DHT22;19030;49.478;8.986;2023-02-28T06:17:06;-1.80;99.90
32612;DHT22;19030;49.478;8.986;2023-02-28T06:19:06;-1.80;99.90
32612;DHT22;19030;49.478;8.986;2023-02-28T06:21:07;-1.80;99.90
32612;DHT22;19030;49.478;8.986;2023-02-28T06:23:09;-1.80;99.90
32612;DHT22;19030;49.478;8.986;2023-02-28T06:25:10;-1.80;99.90
32612;DHT22;19030;49.478;8.986;2023-02-28T06:27:10;-1.80;99.90
32612;DHT22;19030;49.478;8.986;2023-02-28T06:29:11;-1.80;99.90
32612;DHT22;19030;49.478;8.986;2023-02-28T06:31:13;-1.80;99.90
32612;DHT22;19030;49.478;8.986;2023-02-28T06:33:14;-1.80;99.90
32612;DHT22;19030;49.478;8.986;2023-02-28T06:35:15;-1.80;99.90
32612;DHT22;19030;49.478;8.986;2023-02-28T06:37:16;-1.70;99.90
32612;DHT22;19030;49.478;8.986;2023-02-28T06:39:17;-1.70;99.90
32612;DHT22;19030;49.478;8.986;2023-02-28T06:41:18;-1.60;99.90
32612;DHT22;19030;49.478;8.986;2023-02-28T06:43:19;-1.60;99.90
32612;DHT22;19030;49.478;8.986;2023-02-28T06:45:19;-1.50;99.90
32612;DHT22;19030;49.478;8.986;2023-02-28T06:47:20;-1.50;99.90
32612;DHT22;19030;49.478;8.986;2023-02-28T06:49:20;-1.50;99.90
32612;DHT22;19030;49.478;8.986;2023-02-28T06:51:21;-1.40;99.90
32612;DHT22;19030;49.478;8.986;2023-02-28T06:53:22;-1.30;99.90
32612;DHT22;19030;49.478;8.986;2023-02-28T06:55:23;-1.30;99.90
32612;DHT22;19030;49.478;8.986;2023-02-28T06:57:23;-1.20;99.90
32612;DHT22;19030;49.478;8.986;2023-02-28T06:59:25;-1.20;99.90
32612;DHT22;19030;49.478;8.986;2023-02-28T07:01:25;-1.20;99.90
32612;DHT22;19030;49.478;8.986;2023-02-28T07:03:28;-1.20;99.90
32612;DHT22;19030;49.478;8.986;2023-02-28T07:05:28;-1.10;99.90
32612;DHT22;19030;49.478;8.986;2023-02-28T07:07:29;-1.10;99.90
32612;DHT22;19030;49.478;8.986;2023-02-28T07:09:29;-1.00;99.90
32612;DHT22;19030;49.478;8.986;2023-02-28T07:11:30;-1.00;99.90
32612;DHT22;19030;49.478;8.986;2023-02-28T07:13:31;-0.90;99.90
32612;DHT22;19030;49.478;8.986;2023-02-28T07:15:31;-0.90;99.90
32612;DHT22;19030;49.478;8.986;2023-02-28T07:17:32;-0.80;99.90
32612;DHT22;19030;49.478;8.986;2023-02-28T07:19:32;-0.70;99.90
32612;DHT22;19030;49.478;8.986;2023-02-28T07:21:33;-0.60;99.90
32612;DHT22;19030;49.478;8.986;2023-02-28T07:23:34;-0.30;99.90
32612;DHT22;19030;49.478;8.986;2023-02-28T07:25:35;0.00;99.90
32612;DHT22;19030;49.478;8.986;2023-02-28T07:27:36;0.50;99.90
32612;DHT22;19030;49.478;8.986;2023-02-28T07:29:36;0.90;99.90
32612;DHT22;19030;49.478;8.986;2023-02-28T07:31:38;1.20;99.90
32612;DHT22;19030;49.478;8.986;2023-02-28T07:33:39;1.40;99.90
32612;DHT22;19030;49.478;8.986;2023-02-28T07:35:40;1.60;99.90
32612;DHT22;19030;49.478;8.986;2023-02-28T07:37:41;1.80;99.90
32612;DHT22;19030;49.478;8.986;2023-02-28T07:39:42;2.10;99.90
32612;DHT22;19030;49.478;8.986;2023-02-28T07:41:43;2.30;99.90
32612;DHT22;19030;49.478;8.986;2023-02-28T07:43:44;2.50;99.90
32612;DHT22;19030;49.478;8.986;2023-02-28T07:45:44;2.80;99.90
32612;DHT22;19030;49.478;8.986;2023-02-28T07:47:46;3.00;99.30
32612;DHT22;19030;49.478;8.986;2023-02-28T07:49:46;3.10;97.80
32612;DHT22;19030;49.478;8.986;2023-02-28T07:51:47;3.10;96.90
32612;DHT22;19030;49.478;8.986;2023-02-28T07:53:47;3.00;96.90
32612;DHT22;19030;49.478;8.986;2023-02-28T07:55:48;3.20;97.40
32612;DHT22;19030;49.478;8.986;2023-02-28T07:57:49;3.40;95.90
32612;DHT22;19030;49.478;8.986;2023-02-28T07:59:49;3.50;95.50
32612;DHT22;19030;49.478;8.986;2023-02-28T08:01:50;3.70;94.40
32612;DHT22;19030;49.478;8.986;2023-02-28T08:03:51;3.80;94.00
32612;DHT22;19030;49.478;8.986;2023-02-28T08:05:52;3.80;93.80
32612;DHT22;19030;49.478;8.986;2023-02-28T08:07:53;3.80;93.20
32612;DHT22;19030;49.478;8.986;2023-02-28T08:09:53;3.90;92.80
32612;DHT22;19030;49.478;8.986;2023-02-28T08:11:54;4.00;92.40
32612;DHT22;19030;49.478;8.986;2023-02-28T08:13:55;4.20;91.50
32612;DHT22;19030;49.478;8.986;2023-02-28T08:15:56;4.40;91.40
32612;DHT22;19030;49.478;8.986;2023-02-28T08:17:56;4.60;89.80
32612;DHT22;19030;49.478;8.986;2023-02-28T08:19:57;4.90;88.30
32612;DHT22;19030;49.478;8.986;2023-02-28T08:21:58;5.00;86.20
32612;DHT22;19030;49.478;8.986;2023-02-28T08:23:59;5.20;85.00
32612;DHT22;19030;49.478;8.986;2023-02-28T08:25:59;5.40;83.40
32612;DHT22;19030;49.478;8.986;2023-02-28T08:28:00;5.40;82.60
32612;DHT22;19030;49.478;8.986;2023-02-28T08:30:01;5.70;81.90
32612;DHT22;19030;49.478;8.986;2023-02-28T08:32:04;5.80;79.90
32612;DHT22;19030;49.478;8.986;2023-02-28T08:34:09;5.90;78.70
32612;DHT22;19030;49.478;8.986;2023-02-28T08:36:11;6.20;78.90
32612;DHT22;19030;49.478;8.986;2023-02-28T08:38:12;6.20;75.60
32612;DHT22;19030;49.478;8.986;2023-02-28T08:40:12;6.40;75.50
32612;DHT22;19030;49.478;8.986;2023-02-28T08:42:18;6.70;74.20
32612;DHT22;19030;49.478;8.986;2023-02-28T08:44:18;7.00;71.90
32612;DHT22;19030;49.478;8.986;2023-02-28T08:46:19;7.20;68.80
32612;DHT22;19030;49.478;8.986;2023-02-28T08:48:20;7.00;66.90
32612;DHT22;19030;49.478;8.986;2023-02-28T08:50:21;6.80;66.50
32612;DHT22;19030;49.478;8.986;2023-02-28T08:52:22;6.80;67.90
32612;DHT22;19030;49.478;8.986;2023-02-28T08:54:23;6.80;68.00
32612;DHT22;19030;49.478;8.986;2023-02-28T08:56:24;6.80;66.50
32612;DHT22;19030;49.478;8.986;2023-02-28T08:58:24;6.70;66.20
32612;DHT22;19030;49.478;8.986;2023-02-28T09:00:25;6.80;66.20
32612;DHT22;19030;49.478;8.986;2023-02-28T09:02:26;7.30;65.80
32612;DHT22;19030;49.478;8.986;2023-02-28T09:04:26;8.20;62.40
32612;DHT22;19030;49.478;8.986;2023-02-28T09:06:27;9.20;58.80
32612;DHT22;19030;49.478;8.986;2023-02-28T09:08:29;10.60;54.30
32612;DHT22;19030;49.478;8.986;2023-02-28T09:10:30;11.60;50.50
32612;DHT22;19030;49.478;8.986;2023-02-28T09:12:33;12.70;47.90
32612;DHT22;19030;49.478;8.986;2023-02-28T09:14:35;13.60;43.80
32612;DHT22;19030;49.478;8.986;2023-02-28T09:16:35;13.70;42.40
32612;DHT22;19030;49.478;8.986;2023-02-28T09:18:37;13.30;42.40
32612;DHT22;19030;49.478;8.986;2023-02-28T09:20:39;13.70;41.90
32612;DHT22;19030;49.478;8.986;2023-02-28T09:22:40;14.20;40.40
32612;DHT22;19030;49.478;8.986;2023-02-28T09:24:40;13.90;40.10
32612;DHT22;19030;49.478;8.986;2023-02-28T09:26:41;14.00;40.10
32612;DHT22;19030;49.478;8.986;2023-02-28T09:28:41;13.90;40.20
32612;DHT22;19030;49.478;8.986;2023-02-28T09:30:44;13.60;40.30
32612;DHT22;19030;49.478;8.986;2023-02-28T09:32:46;13.40;40.30
32612;DHT22;19030;49.478;8.986;2023-02-28T09:34:52;12.90;40.90
32612;DHT22;19030;49.478;8.986;2023-02-28T09:36:52;12.60;42.70
32612;DHT22;19030;49.478;8.986;2023-02-28T09:38:55;13.50;41.60
32612;DHT22;19030;49.478;8.986;2023-02-28T09:40:58;14.60;39.20
32612;DHT22;19030;49.478;8.986;2023-02-28T09:42:59;14.80;37.90
32612;DHT22;19030;49.478;8.986;2023-02-28T09:45:03;15.00;37.60
32612;DHT22;19030;49.478;8.986;2023-02-28T09:49:16;14.90;37.90
32612;DHT22;19030;49.478;8.986;2023-02-28T09:53:32;15.60;36.60
32612;DHT22;19030;49.478;8.986;2023-02-28T09:56:07;15.20;36.80
32612;DHT22;19030;49.478;8.986;2023-02-28T09:58:18;14.90;37.70
32612;DHT22;19030;49.478;8.986;2023-02-28T10:00:39;16.70;35.50
32612;DHT22;19030;49.478;8.986;2023-02-28T10:02:56;17.00;34.30
32612;DHT22;19030;49.478;8.986;2023-02-28T10:05:07;17.40;33.50
32612;DHT22;19030;49.478;8.986;2023-02-28T10:07:22;17.90;33.10
32612;DHT22;19030;49.478;8.986;2023-02-28T10:09:29;18.70;31.50
32612;DHT22;19030;49.478;8.986;2023-02-28T10:11:33;19.70;30.40
32612;DHT22;19030;49.478;8.986;2023-02-28T10:13:53;19.20;30.20
32612;DHT22;19030;49.478;8.986;2023-02-28T10:16:02;18.60;30.60
32612;DHT22;19030;49.478;8.986;2023-02-28T10:18:05;18.70;31.20
32612;DHT22;19030;49.478;8.986;2023-02-28T10:20:19;19.00;30.20
32612;DHT22;19030;49.478;8.986;2023-02-28T10:22:29;17.70;31.20
32612;DHT22;19030;49.478;8.986;2023-02-28T10:24:35;16.50;33.20
32612;DHT22;19030;49.478;8.986;2023-02-28T10:26:38;16.00;34.20
32612;DHT22;19030;49.478;8.986;2023-02-28T10:28:39;16.20;34.90
32612;DHT22;19030;49.478;8.986;2023-02-28T10:30:43;17.40;33.40
32612;DHT22;19030;49.478;8.986;2023-02-28T10:32:50;18.50;32.10
32612;DHT22;19030;49.478;8.986;2023-02-28T10:35:15;19.20;30.00
32612;DHT22;19030;49.478;8.986;2023-02-28T10:37:13;18.80;31.20
32612;DHT22;19030;49.478;8.986;2023-02-28T10:41:42;20.50;29.80
32612;DHT22;19030;49.478;8.986;2023-02-28T10:43:44;21.70;27.80
32612;DHT22;19030;49.478;8.986;2023-02-28T10:46:23;20.80;28.10
32612;DHT22;19030;49.478;8.986;2023-02-28T10:48:40;20.60;28.10
32612;DHT22;19030;49.478;8.986;2023-02-28T10:52:53;21.70;27.60
32612;DHT22;19030;49.478;8.986;2023-02-28T10:55:21;22.60;27.10
32612;DHT22;19030;49.478;8.986;2023-02-28T10:57:23;23.10;26.80
32612;DHT22;19030;49.478;8.986;2023-02-28T10:59:30;23.60;26.00
32612;DHT22;19030;49.478;8.986;2023-02-28T11:03:39;21.50;26.70
32612;DHT22;19030;49.478;8.986;2023-02-28T11:05:40;20.40;27.80
32612;DHT22;19030;49.478;8.986;2023-02-28T11:07:54;21.00;28.10
32612;DHT22;19030;49.478;8.986;2023-02-28T11:09:57;22.00;26.80
32612;DHT22;19030;49.478;8.986;2023-02-28T11:11:58;23.00;26.10
32612;DHT22;19030;49.478;8.986;2023-02-28T11:14:06;22.60;25.60
32612;DHT22;19030;49.478;8.986;2023-02-28T11:16:15;22.20;26.00
32612;DHT22;19030;49.478;8.986;2023-02-28T11:20:31;18.90;28.30
32612;DHT22;19030;49.478;8.986;2023-02-28T11:22:37;17.40;30.40
32612;DHT22;19030;49.478;8.986;2023-02-28T11:24:42;16.60;31.30
32612;DHT22;19030;49.478;8.986;2023-02-28T11:26:47;15.10;33.60
32612;DHT22;19030;49.478;8.986;2023-02-28T11:29:05;13.40;35.90
32612;DHT22;19030;49.478;8.986;2023-02-28T11:33:54;15.20;35.90
32612;DHT22;19030;49.478;8.986;2023-02-28T11:36:00;15.90;34.10
32612;DHT22;19030;49.478;8.986;2023-02-28T11:38:02;16.10;32.90
32612;DHT22;19030;49.478;8.986;2023-02-28T11:40:08;17.00;32.90
32612;DHT22;19030;49.478;8.986;2023-02-28T11:44:56;17.90;30.70
32612;DHT22;19030;49.478;8.986;2023-02-28T11:51:35;17.80;30.90
32612;DHT22;19030;49.478;8.986;2023-02-28T11:58:53;18.70;29.00
32612;DHT22;19030;49.478;8.986;2023-02-28T12:05:50;15.30;33.10
32612;DHT22;19030;49.478;8.986;2023-02-28T12:08:26;15.30;34.80
32612;DHT22;19030;49.478;8.986;2023-02-28T12:10:37;16.40;32.80
32612;DHT22;19030;49.478;8.986;2023-02-28T12:13:03;16.80;32.30
32612;DHT22;19030;49.478;8.986;2023-02-28T12:20:02;18.60;29.70
32612;DHT22;19030;49.478;8.986;2023-02-28T12:22:28;18.10;30.00
32612;DHT22;19030;49.478;8.986;2023-02-28T12:27:00;18.60;29.70
32612;DHT22;19030;49.478;8.986;2023-02-28T12:29:25;18.40;29.70
32612;DHT22;19030;49.478;8.986;2023-02-28T12:31:36;17.50;29.70
32612;DHT22;19030;49.478;8.986;2023-02-28T12:33:44;16.30;31.80
32612;DHT22;19030;49.478;8.986;2023-02-28T12:35:59;15.40;33.40
32612;DHT22;19030;49.478;8.986;2023-02-28T12:38:24;16.20;32.80
32612;DHT22;19030;49.478;8.986;2023-02-28T12:40:32;16.90;31.30
32612;DHT22;19030;49.478;8.986;2023-02-28T12:42:39;17.40;31.20
32612;DHT22;19030;49.478;8.986;2023-02-28T12:44:53;18.20;30.20
32612;DHT22;19030;49.478;8.986;2023-02-28T12:46:59;17.80;29.90
32612;DHT22;19030;49.478;8.986;2023-02-28T12:49:25;17.10;30.80
32612;DHT22;19030;49.478;8.986;2023-02-28T12:51:28;15.60;32.20
32612;DHT22;19030;49.478;8.986;2023-02-28T12:54:19;13.90;34.50
32612;DHT22;19030;49.478;8.986;2023-02-28T13:00:37;14.10;35.10
32612;DHT22;19030;49.478;8.986;2023-02-28T13:05:13;12.30;38.20
32612;DHT22;19030;49.478;8.986;2023-02-28T13:09:39;14.00;37.80
32612;DHT22;19030;49.478;8.986;2023-02-28T13:11:44;15.40;35.00
32612;DHT22;19030;49.478;8.986;2023-02-28T13:13:45;16.30;33.30
32612;DHT22;19030;49.478;8.986;2023-02-28T13:17:59;17.30;31.50
32612;DHT22;19030;49.478;8.986;2023-02-28T13:20:00;16.60;31.60
32612;DHT22;19030;49.478;8.986;2023-02-28T13:22:01;16.00;32.80
32612;DHT22;19030;49.478;8.986;2023-02-28T13:24:04;15.40;34.10
32612;DHT22;19030;49.478;8.986;2023-02-28T13:26:05;15.30;34.30
32612;DHT22;19030;49.478;8.986;2023-02-28T13:28:11;15.00;35.00
32612;DHT22;19030;49.478;8.986;2023-02-28T13:35:36;15.80;33.60
32612;DHT22;19030;49.478;8.986;2023-02-28T13:37:43;16.10;33.80
32612;DHT22;19030;49.478;8.986;2023-02-28T13:39:45;16.60;32.70
32612;DHT22;19030;49.478;8.986;2023-02-28T13:41:46;16.90;31.70
32612;DHT22;19030;49.478;8.986;2023-02-28T13:44:10;16.40;31.60
32612;DHT22;19030;49.478;8.986;2023-02-28T13:46:13;14.90;33.30
32612;DHT22;19030;49.478;8.986;2023-02-28T13:48:19;13.80;35.90
32612;DHT22;19030;49.478;8.986;2023-02-28T13:50:30;12.90;37.40
32612;DHT22;19030;49.478;8.986;2023-02-28T13:52:33;12.20;38.60
32612;DHT22;19030;49.478;8.986;2023-02-28T13:59:30;13.00;39.00
32612;DHT22;19030;49.478;8.986;2023-02-28T14:04:23;13.90;37.10
32612;DHT22;19030;49.478;8.986;2023-02-28T14:06:31;14.10;37.30
32612;DHT22;19030;49.478;8.986;2023-02-28T14:08:33;13.60;36.70
32612;DHT22;19030;49.478;8.986;2023-02-28T14:10:45;13.00;38.60
32612;DHT22;19030;49.478;8.986;2023-02-28T14:12:54;12.80;38.70
32612;DHT22;19030;49.478;8.986;2023-02-28T14:14:55;12.20;39.60
32612;DHT22;19030;49.478;8.986;2023-02-28T14:16:56;12.40;40.50
32612;DHT22;19030;49.478;8.986;2023-02-28T14:19:01;12.90;40.00
32612;DHT22;19030;49.478;8.986;2023-02-28T14:23:31;13.60;38.20
32612;DHT22;19030;49.478;8.986;2023-02-28T14:32:37;13.90;37.50
32612;DHT22;19030;49.478;8.986;2023-02-28T14:35:22;13.80;36.90
32612;DHT22;19030;49.478;8.986;2023-02-28T14:37:29;13.00;38.30
32612;DHT22;19030;49.478;8.986;2023-02-28T14:39:31;13.10;38.90
32612;DHT22;19030;49.478;8.986;2023-02-28T14:41:34;13.30;38.30
32612;DHT22;19030;49.478;8.986;2023-02-28T14:43:36;13.40;37.90
32612;DHT22;19030;49.478;8.986;2023-02-28T14:45:54;13.20;37.70
32612;DHT22;19030;49.478;8.986;2023-02-28T14:47:56;13.10;38.20